sensor_id;sensor_type;location;lat;lon;timestamp;noise_LAeq;noise_LA_min;noise_LA_max;noise_LA01;noise_LA95
80580;Laerm;69939;52.402;6.608;2023-05-16T00:01:24;59.96;33.19;77.90;;
80580;Laerm;69939;52.402;6.608;2023-05-16T00:03:55;50.82;32.96;71.72;;
80580;Laerm;69939;52.402;6.608;2023-05-16T00:06:22;55.91;33.65;74.65;;
80580;Laerm;69939;52.402;6.608;2023-05-16T00:08:50;54.18;32.89;74.55;;
80580;Laerm;69939;52.402;6.608;2023-05-16T00:11:20;54.53;32.88;72.91;;
80580;Laerm;69939;52.402;6.608;2023-05-16T00:13:47;56.74;32.58;78.19;;
80580;Laerm;69939;52.402;6.608;2023-05-16T00:16:17;55.43;32.82;76.00;;
80580;Laerm;69939;52.402;6.608;2023-05-16T00:18:46;54.91;32.75;77.68;;
80580;Laerm;69939;52.402;6.608;2023-05-16T00:21:16;51.75;32.45;73.60;;
80580;Laerm;69939;52.402;6.608;2023-05-16T00:23:43;40.95;31.95;64.28;;
80580;Laerm;69939;52.402;6.608;2023-05-16T00:26:10;47.21;32.85;73.60;;
80580;Laerm;69939;52.402;6.608;2023-05-16T00:28:37;58.48;32.69;76.16;;
80580;Laerm;69939;52.402;6.608;2023-05-16T00:31:04;42.76;32.58;65.61;;
80580;Laerm;69939;52.402;6.608;2023-05-16T00:33:32;55.44;34.10;71.03;;
80580;Laerm;69939;52.402;6.608;2023-05-16T00:35:59;52.23;32.24;74.42;;
80580;Laerm;69939;52.402;6.608;2023-05-16T00:38:27;43.17;32.26;63.44;;
80580;Laerm;69939;52.402;6.608;2023-05-16T00:40:54;53.01;32.47;73.53;;
80580;Laerm;69939;52.402;6.608;2023-05-16T00:43:21;57.02;32.03;75.80;;
80580;Laerm;69939;52.402;6.608;2023-05-16T00:45:49;39.42;31.77;63.96;;
80580;Laerm;69939;52.402;6.608;2023-05-16T00:48:17;45.40;31.97;68.12;;
80580;Laerm;69939;52.402;6.608;2023-05-16T00:50:45;39.61;31.68;64.16;;
80580;Laerm;69939;52.402;6.608;2023-05-16T00:53:12;51.91;31.99;70.94;;
80580;Laerm;69939;52.402;6.608;2023-05-16T00:55:40;42.85;32.96;64.09;;
80580;Laerm;69939;52.402;6.608;2023-05-16T00:58:09;51.19;33.29;68.39;;
80580;Laerm;69939;52.402;6.608;2023-05-16T01:00:37;42.48;32.17;68.21;;
80580;Laerm;69939;52.402;6.608;2023-05-16T01:03:04;51.80;32.61;68.44;;
80580;Laerm;69939;52.402;6.608;2023-05-16T01:05:40;56.72;32.99;72.12;;
80580;Laerm;69939;52.402;6.608;2023-05-16T01:08:06;56.67;33.95;75.74;;
80580;Laerm;69939;52.402;6.608;2023-05-16T01:10:42;47.32;31.85;76.82;;
80580;Laerm;69939;52.402;6.608;2023-05-16T01:13:24;38.96;31.88;63.67;;
80580;Laerm;69939;52.402;6.608;2023-05-16T01:16:04;49.38;32.67;65.90;;
80580;Laerm;69939;52.402;6.608;2023-05-16T01:18:41;52.09;33.20;71.71;;
80580;Laerm;69939;52.402;6.608;2023-05-16T01:21:15;57.59;34.27;75.10;;
80580;Laerm;69939;52.402;6.608;2023-05-16T01:24:02;41.79;32.35;65.00;;
80580;Laerm;69939;52.402;6.608;2023-05-16T01:26:36;40.68;31.64;64.85;;
80580;Laerm;69939;52.402;6.608;2023-05-16T01:29:03;52.46;32.84;70.04;;
80580;Laerm;69939;52.402;6.608;2023-05-16T01:31:30;58.03;32.99;78.61;;
80580;Laerm;69939;52.402;6.608;2023-05-16T01:33:57;56.81;32.62;77.56;;
80580;Laerm;69939;52.402;6.608;2023-05-16T01:36:29;43.44;31.92;63.21;;
80580;Laerm;69939;52.402;6.608;2023-05-16T01:39:10;54.05;32.90;73.19;;
80580;Laerm;69939;52.402;6.608;2023-05-16T01:41:52;54.35;32.62;76.92;;
80580;Laerm;69939;52.402;6.608;2023-05-16T01:44:30;53.75;32.67;71.76;;
80580;Laerm;69939;52.402;6.608;2023-05-16T01:47:02;51.44;33.06;70.37;;
80580;Laerm;69939;52.402;6.608;2023-05-16T01:49:42;57.24;33.74;71.95;;
80580;Laerm;69939;52.402;6.608;2023-05-16T01:52:19;53.58;34.58;70.87;;
80580;Laerm;69939;52.402;6.608;2023-05-16T01:54:50;45.16;33.45;68.06;;
80580;Laerm;69939;52.402;6.608;2023-05-16T01:57:25;41.09;33.13;64.97;;
80580;Laerm;69939;52.402;6.608;2023-05-16T01:59:52;41.84;32.40;64.13;;
80580;Laerm;69939;52.402;6.608;2023-05-16T02:02:21;45.55;32.49;66.38;;
80580;Laerm;69939;52.402;6.608;2023-05-16T02:04:49;56.11;33.61;71.17;;
80580;Laerm;69939;52.402;6.608;2023-05-16T02:07:16;56.76;34.54;73.59;;
80580;Laerm;69939;52.402;6.608;2023-05-16T02:09:43;51.24;32.74;74.17;;
80580;Laerm;69939;52.402;6.608;2023-05-16T02:12:10;51.56;32.90;70.85;;
80580;Laerm;69939;52.402;6.608;2023-05-16T02:14:38;57.80;34.90;75.72;;
80580;Laerm;69939;52.402;6.608;2023-05-16T02:17:08;56.99;33.74;72.02;;
80580;Laerm;69939;52.402;6.608;2023-05-16T02:19:35;39.29;33.12;63.61;;
80580;Laerm;69939;52.402;6.608;2023-05-16T02:22:02;40.21;33.34;62.71;;
80580;Laerm;69939;52.402;6.608;2023-05-16T02:24:29;55.75;35.37;71.05;;
80580;Laerm;69939;52.402;6.608;2023-05-16T02:26:57;40.89;33.15;64.39;;
80580;Laerm;69939;52.402;6.608;2023-05-16T02:29:24;57.74;35.42;75.61;;
80580;Laerm;69939;52.402;6.608;2023-05-16T02:31:52;55.58;34.70;74.00;;
80580;Laerm;69939;52.402;6.608;2023-05-16T02:34:19;43.16;34.40;63.91;;
80580;Laerm;69939;52.402;6.608;2023-05-16T02:36:47;59.83;36.41;73.41;;
80580;Laerm;69939;52.402;6.608;2023-05-16T02:39:13;62.36;40.79;77.05;;
80580;Laerm;69939;52.402;6.608;2023-05-16T02:41:43;61.40;40.53;73.81;;
80580;Laerm;69939;52.402;6.608;2023-05-16T02:44:10;56.89;37.92;73.09;;
80580;Laerm;69939;52.402;6.608;2023-05-16T02:46:37;55.78;39.05;73.61;;
80580;Laerm;69939;52.402;6.608;2023-05-16T02:49:05;62.16;39.49;78.25;;
80580;Laerm;69939;52.402;6.608;2023-05-16T02:51:32;56.14;38.29;73.08;;
80580;Laerm;69939;52.402;6.608;2023-05-16T02:54:01;54.19;37.49;70.70;;
80580;Laerm;69939;52.402;6.608;2023-05-16T02:56:28;62.08;38.95;77.10;;
80580;Laerm;69939;52.402;6.608;2023-05-16T02:58:56;61.84;43.17;76.64;;
80580;Laerm;69939;52.402;6.608;2023-05-16T03:01:23;61.11;39.54;78.25;;
80580;Laerm;69939;52.402;6.608;2023-05-16T03:03:49;54.48;38.17;71.68;;
80580;Laerm;69939;52.402;6.608;2023-05-16T03:06:18;59.46;38.29;75.39;;
80580;Laerm;69939;52.402;6.608;2023-05-16T03:08:48;63.84;44.52;76.60;;
80580;Laerm;69939;52.402;6.608;2023-05-16T03:11:18;61.38;39.72;76.23;;
80580;Laerm;69939;52.402;6.608;2023-05-16T03:13:46;60.24;42.09;75.06;;
80580;Laerm;69939;52.402;6.608;2023-05-16T03:16:13;61.24;40.10;75.52;;
80580;Laerm;69939;52.402;6.608;2023-05-16T03:18:42;60.45;41.44;73.89;;
80580;Laerm;69939;52.402;6.608;2023-05-16T03:21:09;62.19;38.35;76.08;;
80580;Laerm;69939;52.402;6.608;2023-05-16T03:23:37;56.77;37.27;71.59;;
80580;Laerm;69939;52.402;6.608;2023-05-16T03:26:05;61.64;40.37;75.45;;
80580;Laerm;69939;52.402;6.608;2023-05-16T03:28:34;63.58;44.61;77.01;;
80580;Laerm;69939;52.402;6.608;2023-05-16T03:31:01;64.14;45.59;76.81;;
80580;Laerm;69939;52.402;6.608;2023-05-16T03:33:30;64.45;45.92;75.65;;
80580;Laerm;69939;52.402;6.608;2023-05-16T03:35:57;60.03;41.27;75.78;;
80580;Laerm;69939;52.402;6.608;2023-05-16T03:38:24;63.31;44.10;76.52;;
80580;Laerm;69939;52.402;6.608;2023-05-16T03:40:53;64.19;46.34;74.60;;
80580;Laerm;69939;52.402;6.608;2023-05-16T03:43:23;62.86;44.39;72.62;;
80580;Laerm;69939;52.402;6.608;2023-05-16T03:45:50;62.98;45.34;74.77;;
80580;Laerm;69939;52.402;6.608;2023-05-16T03:48:17;65.99;45.80;78.87;;
80580;Laerm;69939;52.402;6.608;2023-05-16T03:50:46;65.49;46.28;75.56;;
80580;Laerm;69939;52.402;6.608;2023-05-16T03:53:13;64.30;46.03;76.98;;
80580;Laerm;69939;52.402;6.608;2023-05-16T03:55:45;64.05;42.46;76.18;;
80580;Laerm;69939;52.402;6.608;2023-05-16T03:58:13;63.70;41.77;76.63;;
80580;Laerm;69939;52.402;6.608;2023-05-16T04:00:42;62.76;40.39;75.02;;
80580;Laerm;69939;52.402;6.608;2023-05-16T04:03:11;65.92;47.59;78.63;;
80580;Laerm;69939;52.402;6.608;2023-05-16T04:05:38;66.45;45.92;78.29;;
80580;Laerm;69939;52.402;6.608;2023-05-16T04:08:06;63.92;47.08;77.23;;
80580;Laerm;69939;52.402;6.608;2023-05-16T04:10:33;65.68;47.44;75.86;;
80580;Laerm;69939;52.402;6.608;2023-05-16T04:13:00;66.44;48.82;76.91;;
80580;Laerm;69939;52.402;6.608;2023-05-16T04:15:31;64.83;44.89;76.07;;
80580;Laerm;69939;52.402;6.608;2023-05-16T04:17:58;64.28;45.21;75.78;;
80580;Laerm;69939;52.402;6.608;2023-05-16T04:20:25;65.62;48.22;78.41;;
80580;Laerm;69939;52.402;6.608;2023-05-16T04:22:51;64.22;44.34;75.45;;
80580;Laerm;69939;52.402;6.608;2023-05-16T04:25:19;65.48;48.18;75.45;;
80580;Laerm;69939;52.402;6.608;2023-05-16T04:27:46;64.97;47.40;76.31;;
80580;Laerm;69939;52.402;6.608;2023-05-16T04:30:13;66.27;50.31;77.73;;
80580;Laerm;69939;52.402;6.608;2023-05-16T04:32:42;67.28;48.18;78.43;;
80580;Laerm;69939;52.402;6.608;2023-05-16T04:35:10;63.04;44.59;74.21;;
80580;Laerm;69939;52.402;6.608;2023-05-16T04:37:40;66.42;43.34;77.17;;
80580;Laerm;69939;52.402;6.608;2023-05-16T04:40:09;67.05;51.54;77.67;;
80580;Laerm;69939;52.402;6.608;2023-05-16T04:42:37;66.14;47.85;75.65;;
80580;Laerm;69939;52.402;6.608;2023-05-16T04:45:07;64.98;45.21;75.23;;
80580;Laerm;69939;52.402;6.608;2023-05-16T04:47:39;65.73;44.68;74.82;;
80580;Laerm;69939;52.402;6.608;2023-05-16T04:50:09;66.77;46.11;79.19;;
80580;Laerm;69939;52.402;6.608;2023-05-16T04:52:36;65.20;46.90;78.21;;
80580;Laerm;69939;52.402;6.608;2023-05-16T04:55:04;67.43;51.26;75.77;;
80580;Laerm;69939;52.402;6.608;2023-05-16T04:57:32;66.28;46.72;75.32;;
80580;Laerm;69939;52.402;6.608;2023-05-16T05:00:20;67.12;49.41;81.51;;
80580;Laerm;69939;52.402;6.608;2023-05-16T05:02:50;67.65;49.20;78.56;;
80580;Laerm;69939;52.402;6.608;2023-05-16T05:05:18;67.05;49.43;74.13;;
80580;Laerm;69939;52.402;6.608;2023-05-16T05:07:45;67.50;49.76;75.30;;
80580;Laerm;69939;52.402;6.608;2023-05-16T05:10:12;68.14;49.43;76.37;;
80580;Laerm;69939;52.402;6.608;2023-05-16T05:12:39;68.76;52.10;76.27;;
80580;Laerm;69939;52.402;6.608;2023-05-16T05:15:07;66.25;48.84;75.03;;
80580;Laerm;69939;52.402;6.608;2023-05-16T05:17:34;67.34;49.98;75.05;;
80580;Laerm;69939;52.402;6.608;2023-05-16T05:20:02;67.37;50.98;76.32;;
80580;Laerm;69939;52.402;6.608;2023-05-16T05:22:32;68.58;49.37;79.91;;
80580;Laerm;69939;52.402;6.608;2023-05-16T05:24:59;66.15;48.02;78.85;;
80580;Laerm;69939;52.402;6.608;2023-05-16T05:27:28;67.95;51.43;76.79;;
80580;Laerm;69939;52.402;6.608;2023-05-16T05:29:57;67.97;48.41;77.09;;
80580;Laerm;69939;52.402;6.608;2023-05-16T05:32:24;68.23;53.20;78.97;;
80580;Laerm;69939;52.402;6.608;2023-05-16T05:34:52;67.42;50.38;75.74;;
80580;Laerm;69939;52.402;6.608;2023-05-16T05:37:19;68.89;52.43;78.73;;
80580;Laerm;69939;52.402;6.608;2023-05-16T05:39:48;68.59;50.06;78.49;;
80580;Laerm;69939;52.402;6.608;2023-05-16T05:42:16;68.42;48.35;78.81;;
80580;Laerm;69939;52.402;6.608;2023-05-16T05:44:43;66.83;46.95;74.68;;
80580;Laerm;69939;52.402;6.608;2023-05-16T05:47:14;67.57;52.97;76.89;;
80580;Laerm;69939;52.402;6.608;2023-05-16T05:49:44;69.70;52.76;82.84;;
80580;Laerm;69939;52.402;6.608;2023-05-16T05:52:11;68.08;48.07;75.93;;
80580;Laerm;69939;52.402;6.608;2023-05-16T05:54:38;65.92;51.25;75.41;;
80580;Laerm;69939;52.402;6.608;2023-05-16T05:57:06;67.23;47.27;77.09;;
80580;Laerm;69939;52.402;6.608;2023-05-16T05:59:32;67.52;49.08;78.70;;
80580;Laerm;69939;52.402;6.608;2023-05-16T06:01:59;65.10;47.37;74.28;;
80580;Laerm;69939;52.402;6.608;2023-05-16T06:04:26;66.52;50.53;75.82;;
80580;Laerm;69939;52.402;6.608;2023-05-16T06:06:53;68.35;50.18;77.52;;
80580;Laerm;69939;52.402;6.608;2023-05-16T06:09:20;67.20;48.04;74.88;;
80580;Laerm;69939;52.402;6.608;2023-05-16T06:11:48;66.74;47.17;81.64;;
80580;Laerm;69939;52.402;6.608;2023-05-16T06:14:16;68.04;48.70;76.67;;
80580;Laerm;69939;52.402;6.608;2023-05-16T06:16:43;66.42;49.21;76.61;;
80580;Laerm;69939;52.402;6.608;2023-05-16T06:19:10;67.17;49.35;76.12;;
80580;Laerm;69939;52.402;6.608;2023-05-16T06:21:40;66.44;48.50;76.17;;
80580;Laerm;69939;52.402;6.608;2023-05-16T06:24:07;68.19;47.12;78.64;;
80580;Laerm;69939;52.402;6.608;2023-05-16T06:26:35;66.33;45.97;74.22;;
80580;Laerm;69939;52.402;6.608;2023-05-16T06:29:02;68.95;50.60;82.42;;
80580;Laerm;69939;52.402;6.608;2023-05-16T06:31:30;68.56;48.39;81.09;;
80580;Laerm;69939;52.402;6.608;2023-05-16T06:33:57;67.58;48.31;77.01;;
80580;Laerm;69939;52.402;6.608;2023-05-16T06:36:24;67.54;49.75;77.89;;
80580;Laerm;69939;52.402;6.608;2023-05-16T06:38:50;65.23;48.42;75.48;;
80580;Laerm;69939;52.402;6.608;2023-05-16T06:41:17;67.59;46.64;74.76;;
80580;Laerm;69939;52.402;6.608;2023-05-16T06:43:45;66.61;49.90;76.43;;
80580;Laerm;69939;52.402;6.608;2023-05-16T06:46:19;67.80;51.30;77.04;;
80580;Laerm;69939;52.402;6.608;2023-05-16T06:48:47;68.50;47.74;86.38;;
80580;Laerm;69939;52.402;6.608;2023-05-16T06:51:14;65.81;48.79;76.74;;
80580;Laerm;69939;52.402;6.608;2023-05-16T06:53:43;69.87;48.28;86.12;;
80580;Laerm;69939;52.402;6.608;2023-05-16T06:56:10;66.20;43.15;80.30;;
80580;Laerm;69939;52.402;6.608;2023-05-16T06:58:37;65.83;47.99;74.76;;
80580;Laerm;69939;52.402;6.608;2023-05-16T07:01:03;67.46;48.99;79.73;;
80580;Laerm;69939;52.402;6.608;2023-05-16T07:03:30;63.01;44.65;75.01;;
80580;Laerm;69939;52.402;6.608;2023-05-16T07:06:00;66.44;43.92;87.09;;
80580;Laerm;69939;52.402;6.608;2023-05-16T07:08:26;66.92;50.84;76.78;;
80580;Laerm;69939;52.402;6.608;2023-05-16T07:10:53;66.33;47.64;80.71;;
80580;Laerm;69939;52.402;6.608;2023-05-16T07:13:20;66.24;48.78;77.76;;
80580;Laerm;69939;52.402;6.608;2023-05-16T07:15:46;68.74;45.01;87.52;;
80580;Laerm;69939;52.402;6.608;2023-05-16T07:18:13;66.42;46.30;78.85;;
80580;Laerm;69939;52.402;6.608;2023-05-16T07:20:42;64.94;44.16;79.39;;
80580;Laerm;69939;52.402;6.608;2023-05-16T07:23:11;66.39;45.88;75.18;;
80580;Laerm;69939;52.402;6.608;2023-05-16T07:25:38;62.51;44.36;73.66;;
80580;Laerm;69939;52.402;6.608;2023-05-16T07:28:07;64.74;47.25;77.83;;
80580;Laerm;69939;52.402;6.608;2023-05-16T07:30:33;65.47;46.26;81.95;;
80580;Laerm;69939;52.402;6.608;2023-05-16T07:33:00;64.59;49.63;75.25;;
80580;Laerm;69939;52.402;6.608;2023-05-16T07:35:27;65.04;44.29;75.69;;
80580;Laerm;69939;52.402;6.608;2023-05-16T07:37:53;64.69;45.77;79.04;;
80580;Laerm;69939;52.402;6.608;2023-05-16T07:40:23;65.43;47.92;76.17;;
80580;Laerm;69939;52.402;6.608;2023-05-16T07:42:53;65.78;46.66;77.21;;
80580;Laerm;69939;52.402;6.608;2023-05-16T07:45:20;69.41;46.23;84.99;;
80580;Laerm;69939;52.402;6.608;2023-05-16T07:47:47;66.14;45.52;78.15;;
80580;Laerm;69939;52.402;6.608;2023-05-16T07:50:14;64.97;46.24;79.53;;
80580;Laerm;69939;52.402;6.608;2023-05-16T07:52:40;66.84;47.39;76.66;;
80580;Laerm;69939;52.402;6.608;2023-05-16T07:55:08;64.90;46.18;75.99;;
80580;Laerm;69939;52.402;6.608;2023-05-16T07:57:39;64.75;48.31;81.24;;
80580;Laerm;69939;52.402;6.608;2023-05-16T08:00:07;64.78;46.58;78.86;;
80580;Laerm;69939;52.402;6.608;2023-05-16T08:02:35;65.12;47.19;79.93;;
80580;Laerm;69939;52.402;6.608;2023-05-16T08:05:01;67.32;47.85;81.11;;
80580;Laerm;69939;52.402;6.608;2023-05-16T08:07:28;65.30;46.91;74.78;;
80580;Laerm;69939;52.402;6.608;2023-05-16T08:09:55;65.25;47.94;80.45;;
80580;Laerm;69939;52.402;6.608;2023-05-16T08:12:23;65.31;48.88;77.43;;
80580;Laerm;69939;52.402;6.608;2023-05-16T08:14:52;66.22;48.51;82.58;;
80580;Laerm;69939;52.402;6.608;2023-05-16T08:17:19;65.16;45.43;77.88;;
80580;Laerm;69939;52.402;6.608;2023-05-16T08:19:48;65.41;45.19;74.88;;
80580;Laerm;69939;52.402;6.608;2023-05-16T08:22:17;63.80;45.67;83.23;;
80580;Laerm;69939;52.402;6.608;2023-05-16T08:24:44;66.26;46.25;82.08;;
80580;Laerm;69939;52.402;6.608;2023-05-16T08:27:10;66.62;49.42;78.19;;
80580;Laerm;69939;52.402;6.608;2023-05-16T08:29:37;64.44;43.58;83.33;;
80580;Laerm;69939;52.402;6.608;2023-05-16T08:32:08;70.24;51.42;88.27;;
80580;Laerm;69939;52.402;6.608;2023-05-16T08:34:35;66.04;47.09;86.82;;
80580;Laerm;69939;52.402;6.608;2023-05-16T08:37:03;64.80;44.62;83.78;;
80580;Laerm;69939;52.402;6.608;2023-05-16T08:39:29;67.35;46.53;79.24;;
80580;Laerm;69939;52.402;6.608;2023-05-16T08:41:56;65.21;48.06;75.36;;
80580;Laerm;69939;52.402;6.608;2023-05-16T08:44:23;67.29;46.11;83.05;;
80580;Laerm;69939;52.402;6.608;2023-05-16T08:46:52;66.26;44.42;81.74;;
80580;Laerm;69939;52.402;6.608;2023-05-16T08:49:20;66.57;48.54;82.68;;
80580;Laerm;69939;52.402;6.608;2023-05-16T08:51:51;64.96;46.05;76.33;;
80580;Laerm;69939;52.402;6.608;2023-05-16T08:54:20;66.13;47.99;81.86;;
80580;Laerm;69939;52.402;6.608;2023-05-16T08:56:48;65.18;45.05;82.19;;
80580;Laerm;69939;52.402;6.608;2023-05-16T08:59:16;66.81;48.03;82.57;;
80580;Laerm;69939;52.402;6.608;2023-05-16T09:01:44;65.37;48.37;86.89;;
80580;Laerm;69939;52.402;6.608;2023-05-16T09:04:15;65.44;46.16;77.38;;
80580;Laerm;69939;52.402;6.608;2023-05-16T09:06:44;65.94;48.94;81.18;;
80580;Laerm;69939;52.402;6.608;2023-05-16T09:09:13;64.02;45.39;74.32;;
80580;Laerm;69939;52.402;6.608;2023-05-16T09:11:41;65.43;47.45;80.35;;
80580;Laerm;69939;52.402;6.608;2023-05-16T09:14:09;64.36;48.98;84.56;;
80580;Laerm;69939;52.402;6.608;2023-05-16T09:16:36;62.19;43.96;84.59;;
80580;Laerm;69939;52.402;6.608;2023-05-16T09:19:02;65.47;48.16;76.94;;
80580;Laerm;69939;52.402;6.608;2023-05-16T09:21:31;64.11;43.88;84.79;;
80580;Laerm;69939;52.402;6.608;2023-05-16T09:24:04;66.90;44.78;81.87;;
80580;Laerm;69939;52.402;6.608;2023-05-16T09:26:32;65.63;44.69;79.26;;
80580;Laerm;69939;52.402;6.608;2023-05-16T09:28:59;64.08;46.55;81.22;;
80580;Laerm;69939;52.402;6.608;2023-05-16T09:31:28;65.18;47.02;76.45;;
80580;Laerm;69939;52.402;6.608;2023-05-16T09:34:00;65.43;44.13;77.61;;
80580;Laerm;69939;52.402;6.608;2023-05-16T09:36:27;64.42;44.51;82.30;;
80580;Laerm;69939;52.402;6.608;2023-05-16T09:38:54;66.16;45.68;82.65;;
80580;Laerm;69939;52.402;6.608;2023-05-16T09:41:22;67.70;49.16;85.72;;
80580;Laerm;69939;52.402;6.608;2023-05-16T09:43:49;66.58;50.79;79.25;;
80580;Laerm;69939;52.402;6.608;2023-05-16T09:46:16;68.78;57.29;79.20;;
80580;Laerm;69939;52.402;6.608;2023-05-16T09:48:45;67.01;48.58;85.39;;
80580;Laerm;69939;52.402;6.608;2023-05-16T09:51:13;68.44;50.93;86.45;;
80580;Laerm;69939;52.402;6.608;2023-05-16T09:53:41;68.56;54.84;78.12;;
80580;Laerm;69939;52.402;6.608;2023-05-16T09:56:10;65.97;47.77;80.00;;
80580;Laerm;69939;52.402;6.608;2023-05-16T09:58:42;68.01;46.13;90.65;;
80580;Laerm;69939;52.402;6.608;2023-05-16T10:01:10;67.68;51.89;87.98;;
80580;Laerm;69939;52.402;6.608;2023-05-16T10:03:39;69.59;53.72;87.03;;
80580;Laerm;69939;52.402;6.608;2023-05-16T10:06:07;68.32;57.33;76.73;;
80580;Laerm;69939;52.402;6.608;2023-05-16T10:08:35;64.83;46.85;86.60;;
80580;Laerm;69939;52.402;6.608;2023-05-16T10:11:04;66.56;48.39;80.07;;
80580;Laerm;69939;52.402;6.608;2023-05-16T10:13:35;68.15;50.03;83.13;;
80580;Laerm;69939;52.402;6.608;2023-05-16T10:16:10;66.79;45.66;81.43;;
80580;Laerm;69939;52.402;6.608;2023-05-16T10:18:38;66.24;46.85;82.92;;
80580;Laerm;69939;52.402;6.608;2023-05-16T10:21:09;67.88;47.72;87.66;;
80580;Laerm;69939;52.402;6.608;2023-05-16T10:23:41;65.40;48.84;75.59;;
80580;Laerm;69939;52.402;6.608;2023-05-16T10:26:10;66.24;46.15;76.97;;
80580;Laerm;69939;52.402;6.608;2023-05-16T10:28:39;67.25;50.05;86.43;;
80580;Laerm;69939;52.402;6.608;2023-05-16T10:31:09;68.39;49.69;83.55;;
80580;Laerm;69939;52.402;6.608;2023-05-16T10:33:37;69.80;46.37;88.83;;
80580;Laerm;69939;52.402;6.608;2023-05-16T10:36:06;74.55;50.77;91.54;;
80580;Laerm;69939;52.402;6.608;2023-05-16T10:38:34;69.43;46.47;86.99;;
80580;Laerm;69939;52.402;6.608;2023-05-16T10:41:02;70.09;47.56;90.64;;
80580;Laerm;69939;52.402;6.608;2023-05-16T10:43:29;74.25;49.87;90.91;;
80580;Laerm;69939;52.402;6.608;2023-05-16T10:46:03;65.32;47.63;76.10;;
80580;Laerm;69939;52.402;6.608;2023-05-16T10:48:34;69.80;46.65;92.71;;
80580;Laerm;69939;52.402;6.608;2023-05-16T10:51:02;66.50;47.72;80.12;;
80580;Laerm;69939;52.402;6.608;2023-05-16T10:53:32;65.93;43.16;78.19;;
80580;Laerm;69939;52.402;6.608;2023-05-16T10:56:10;65.30;45.23;80.60;;
80580;Laerm;69939;52.402;6.608;2023-05-16T10:58:46;67.63;46.64;85.15;;
80580;Laerm;69939;52.402;6.608;2023-05-16T11:01:21;70.30;49.03;90.38;;
80580;Laerm;69939;52.402;6.608;2023-05-16T11:04:10;70.79;49.21;90.37;;
80580;Laerm;69939;52.402;6.608;2023-05-16T11:06:51;73.67;47.93;92.36;;
80580;Laerm;69939;52.402;6.608;2023-05-16T11:09:22;68.41;45.03;85.42;;
80580;Laerm;69939;52.402;6.608;2023-05-16T11:12:00;70.56;48.72;85.44;;
80580;Laerm;69939;52.402;6.608;2023-05-16T11:14:36;73.53;48.63;91.84;;
80580;Laerm;69939;52.402;6.608;2023-05-16T11:17:09;72.45;46.23;89.08;;
80580;Laerm;69939;52.402;6.608;2023-05-16T11:19:42;65.40;44.76;81.67;;
80580;Laerm;69939;52.402;6.608;2023-05-16T11:22:25;70.29;46.63;89.38;;
80580;Laerm;69939;52.402;6.608;2023-05-16T11:24:58;73.79;47.43;89.30;;
80580;Laerm;69939;52.402;6.608;2023-05-16T11:27:27;70.92;48.61;90.88;;
80580;Laerm;69939;52.402;6.608;2023-05-16T11:30:02;68.47;48.74;85.03;;
80580;Laerm;69939;52.402;6.608;2023-05-16T11:32:38;69.31;49.47;86.59;;
80580;Laerm;69939;52.402;6.608;2023-05-16T11:35:10;69.68;49.28;85.67;;
80580;Laerm;69939;52.402;6.608;2023-05-16T11:37:37;75.70;46.48;93.19;;
80580;Laerm;69939;52.402;6.608;2023-05-16T11:40:07;74.31;50.75;90.75;;
80580;Laerm;69939;52.402;6.608;2023-05-16T11:42:41;71.69;48.62;89.69;;
80580;Laerm;69939;52.402;6.608;2023-05-16T11:45:10;68.03;44.99;85.14;;
80580;Laerm;69939;52.402;6.608;2023-05-16T11:47:39;71.30;45.70;92.64;;
80580;Laerm;69939;52.402;6.608;2023-05-16T11:50:11;69.94;48.96;86.50;;
80580;Laerm;69939;52.402;6.608;2023-05-16T11:52:38;67.93;48.19;92.45;;
80580;Laerm;69939;52.402;6.608;2023-05-16T11:55:07;67.46;51.19;83.59;;
80580;Laerm;69939;52.402;6.608;2023-05-16T11:57:37;67.35;50.67;86.90;;
80580;Laerm;69939;52.402;6.608;2023-05-16T12:00:13;66.12;46.05;83.20;;
80580;Laerm;69939;52.402;6.608;2023-05-16T12:02:40;67.07;48.04;80.79;;
80580;Laerm;69939;52.402;6.608;2023-05-16T12:05:10;67.67;49.05;77.22;;
80580;Laerm;69939;52.402;6.608;2023-05-16T12:07:37;68.14;50.01;79.36;;
80580;Laerm;69939;52.402;6.608;2023-05-16T12:10:05;65.92;47.30;81.79;;
80580;Laerm;69939;52.402;6.608;2023-05-16T12:12:33;68.40;49.02;85.70;;
80580;Laerm;69939;52.402;6.608;2023-05-16T12:15:00;69.29;51.24;87.35;;
80580;Laerm;69939;52.402;6.608;2023-05-16T12:17:28;67.40;49.13;83.15;;
80580;Laerm;69939;52.402;6.608;2023-05-16T12:19:55;65.19;46.95;82.09;;
80580;Laerm;69939;52.402;6.608;2023-05-16T12:22:24;66.70;50.45;82.86;;
80580;Laerm;69939;52.402;6.608;2023-05-16T12:24:51;70.97;50.93;89.03;;
80580;Laerm;69939;52.402;6.608;2023-05-16T12:27:21;74.32;48.36;92.59;;
80580;Laerm;69939;52.402;6.608;2023-05-16T12:29:49;68.18;51.52;84.47;;
80580;Laerm;69939;52.402;6.608;2023-05-16T12:32:19;78.60;52.68;101.39;;
80580;Laerm;69939;52.402;6.608;2023-05-16T12:34:49;71.92;51.34;94.48;;
80580;Laerm;69939;52.402;6.608;2023-05-16T12:37:16;74.71;49.98;89.74;;
80580;Laerm;69939;52.402;6.608;2023-05-16T12:39:44;70.64;51.34;87.43;;
80580;Laerm;69939;52.402;6.608;2023-05-16T12:42:33;71.24;49.34;91.28;;
80580;Laerm;69939;52.402;6.608;2023-05-16T12:44:59;67.39;49.42;79.52;;
80580;Laerm;69939;52.402;6.608;2023-05-16T12:47:34;67.84;50.17;83.24;;
80580;Laerm;69939;52.402;6.608;2023-05-16T12:50:08;69.80;48.96;87.27;;
80580;Laerm;69939;52.402;6.608;2023-05-16T12:52:36;68.13;57.21;84.19;;
80580;Laerm;69939;52.402;6.608;2023-05-16T12:55:06;73.20;57.44;90.40;;
80580;Laerm;69939;52.402;6.608;2023-05-16T12:57:34;66.94;55.13;85.05;;
80580;Laerm;69939;52.402;6.608;2023-05-16T13:00:01;70.91;54.07;88.49;;
80580;Laerm;69939;52.402;6.608;2023-05-16T13:02:29;70.60;53.70;88.51;;
80580;Laerm;69939;52.402;6.608;2023-05-16T13:04:56;65.90;48.81;82.15;;
80580;Laerm;69939;52.402;6.608;2023-05-16T13:07:22;64.92;50.04;77.34;;
80580;Laerm;69939;52.402;6.608;2023-05-16T13:09:49;66.89;50.63;87.08;;
80580;Laerm;69939;52.402;6.608;2023-05-16T13:12:17;67.94;52.42;76.56;;
80580;Laerm;69939;52.402;6.608;2023-05-16T13:14:46;68.51;58.93;79.65;;
80580;Laerm;69939;52.402;6.608;2023-05-16T13:17:12;69.02;55.35;84.11;;
80580;Laerm;69939;52.402;6.608;2023-05-16T13:19:39;66.06;47.63;80.08;;
80580;Laerm;69939;52.402;6.608;2023-05-16T13:22:06;66.31;53.06;86.40;;
80580;Laerm;69939;52.402;6.608;2023-05-16T13:24:33;67.27;53.36;82.21;;
80580;Laerm;69939;52.402;6.608;2023-05-16T13:26:59;71.90;55.03;92.91;;
80580;Laerm;69939;52.402;6.608;2023-05-16T13:29:27;72.09;55.31;88.39;;
80580;Laerm;69939;52.402;6.608;2023-05-16T13:31:54;66.68;52.98;76.00;;
80580;Laerm;69939;52.402;6.608;2023-05-16T13:34:21;67.25;49.70;82.11;;
80580;Laerm;69939;52.402;6.608;2023-05-16T13:36:47;67.60;51.21;79.35;;
80580;Laerm;69939;52.402;6.608;2023-05-16T13:39:17;69.30;50.69;81.50;;
80580;Laerm;69939;52.402;6.608;2023-05-16T13:41:47;68.99;49.33;85.63;;
80580;Laerm;69939;52.402;6.608;2023-05-16T13:44:14;68.74;56.62;79.41;;
80580;Laerm;69939;52.402;6.608;2023-05-16T13:46:43;66.03;51.14;79.12;;
80580;Laerm;69939;52.402;6.608;2023-05-16T13:49:11;67.09;51.34;84.18;;
80580;Laerm;69939;52.402;6.608;2023-05-16T13:51:38;69.86;52.61;89.39;;
80580;Laerm;69939;52.402;6.608;2023-05-16T13:54:05;70.71;58.11;91.66;;